首页
METAR-TAF:

METAR-TAF

机场 :

貝爾格勒尼古拉·特斯拉機場

贝尔格莱德, 塞尔维亚

纬度: 44-49N, 经度: 020-17E, 海拔: 96米

当前天气观测

该预报发布于36分钟前的14:00 UTC
风速11节,风向西
温度 16°C
湿度 59%
气压 1020 hPa
能见度10公里或以上
1500米以下无云,无积雨云

METAR: LYBE 231400Z 26011KT CAVOK 16/08 Q1020 NOSIG

时间: 16:36 (14:36 UTC)

预报

该预报发布于3小时和36分钟前的11:00 UTC
预报有效从23日的 12点(UTC)到 24日的 12点(UTC)
风速9节,风向西
能见度10公里或以上
散云层高于4000英尺
成为
从 24日的 06点(UTC)到 24日的 08点(UTC)
风速15节,风向北转西北
短暂存在
从 24日的 10点(UTC)到 24日的 12点(UTC)

TAF: LYBE 231100Z 2312/2412 27009KT 9999 SCT040 TX16/2313Z TN09/2406Z BECMG 2406/2408 33015KT TEMPO 2410/2412 RA

超过4000个机场的气象观测和天气预报(METAR&TAF报告)。

可查询的气象台以黄色和红色小点在地图上表示。

将鼠标移到小点上方,可查看气象台名称。

然后点击查看天气观测和预报。

如需切换地图:点击带黑十字的绿色按钮放大地图;点击带横线的绿色按钮缩小地图;或者点击绿色箭头查看邻近地区的地图。


METAR-TAF: